createdAt,value
2018-12-01T00:03:30.259Z,1.16
2018-12-01T00:08:34.869Z,1.13
2018-12-01T00:13:39.311Z,1.14
2018-12-01T00:18:43.942Z,1.12
2018-12-01T00:23:49.257Z,1.03
2018-12-01T00:28:52.990Z,1.13
2018-12-01T00:33:57.563Z,1.11
2018-12-01T00:39:02.111Z,1.13
2018-12-01T00:44:06.694Z,1.05
2018-12-01T00:49:11.220Z,1.11
2018-12-01T00:54:15.814Z,1.13
2018-12-01T00:59:39.377Z,1.08
2018-12-01T01:04:43.917Z,1.08
2018-12-01T01:09:48.479Z,0.78
2018-12-01T01:14:53.050Z,1.17
2018-12-01T01:19:57.656Z,1.17
2018-12-01T01:25:02.248Z,1.16
2018-12-01T01:30:25.854Z,1.00
2018-12-01T01:35:30.459Z,1.17
2018-12-01T01:40:35.016Z,1.08
2018-12-01T01:45:39.578Z,1.14
2018-12-01T01:50:44.159Z,1.17
2018-12-01T01:55:48.739Z,1.20
2018-12-01T02:00:53.267Z,1.09
2018-12-01T02:05:57.877Z,1.12
2018-12-01T02:11:02.413Z,1.17
2018-12-01T02:16:07.271Z,1.04
2018-12-01T02:21:11.846Z,1.16
2018-12-01T02:26:35.133Z,1.19
2018-12-01T02:31:39.714Z,1.06
2018-12-01T02:36:44.273Z,1.20
2018-12-01T02:42:08.121Z,1.14
2018-12-01T02:47:12.703Z,1.21
2018-12-01T02:52:17.333Z,1.20
2018-12-01T02:57:21.875Z,0.99
2018-12-01T03:02:45.416Z,1.18
2018-12-01T03:07:50.038Z,1.11
2018-12-01T03:12:55.065Z,1.27
2018-12-01T03:17:59.652Z,1.30
2018-12-01T03:23:04.202Z,1.07
2018-12-01T03:28:08.775Z,1.27
2018-12-01T03:33:13.348Z,1.27
2018-12-01T03:38:17.924Z,1.23
2018-12-01T03:43:22.469Z,1.26
2018-12-01T03:48:27.053Z,1.29
2018-12-01T03:53:31.531Z,1.24
2018-12-01T03:58:36.106Z,1.24
2018-12-01T04:03:40.623Z,1.31
2018-12-01T04:08:45.182Z,1.38
2018-12-01T04:13:49.835Z,1.44
2018-12-01T04:19:13.078Z,1.36
2018-12-01T04:24:17.664Z,1.35
2018-12-01T04:29:22.267Z,1.41
2018-12-01T04:34:26.823Z,1.43
2018-12-01T04:39:31.362Z,1.48
2018-12-01T04:44:35.967Z,1.32
2018-12-01T04:49:40.534Z,1.41
2018-12-01T04:54:45.082Z,1.48
2018-12-01T04:59:49.716Z,1.33
2018-12-01T05:04:54.253Z,1.47
2018-12-01T05:09:58.893Z,1.51
2018-12-01T05:15:04.403Z,1.46
2018-12-01T05:20:27.025Z,1.45
2018-12-01T05:25:31.561Z,1.53
2018-12-01T05:30:36.125Z,1.49
2018-12-01T05:35:40.748Z,1.50
2018-12-01T05:40:45.290Z,1.52
2018-12-01T05:45:49.892Z,1.47
2018-12-01T05:50:54.412Z,1.42
2018-12-01T05:55:58.982Z,1.47
2018-12-01T06:01:03.551Z,1.47
2018-12-01T06:06:08.172Z,1.53
2018-12-01T06:11:12.733Z,1.49
2018-12-01T06:16:17.270Z,1.49
2018-12-01T06:21:21.852Z,1.40
2018-12-01T06:26:45.487Z,1.39
2018-12-01T06:31:50.044Z,1.58
2018-12-01T06:36:54.774Z,1.45
2018-12-01T06:41:59.367Z,1.47
2018-12-01T06:47:03.983Z,1.46
2018-12-01T06:52:08.502Z,1.36
2018-12-01T06:57:13.199Z,1.44
2018-12-01T07:02:17.747Z,1.46
2018-12-01T07:07:22.327Z,1.48
2018-12-01T07:12:26.869Z,1.47
2018-12-01T07:17:31.435Z,1.50
2018-12-01T07:22:35.968Z,1.43
2018-12-01T07:27:40.548Z,1.59
2018-12-01T07:32:45.737Z,1.62
2018-12-01T07:37:50.298Z,1.54
2018-12-01T07:42:54.857Z,1.53
2018-12-01T07:47:59.397Z,1.68
2018-12-01T07:53:03.984Z,1.66
2018-12-01T07:58:09.497Z,1.67
2018-12-01T08:03:13.961Z,1.58
2018-12-01T08:08:18.530Z,1.64
2018-12-01T08:13:23.119Z,1.78
2018-12-01T08:18:27.561Z,1.65
2018-12-01T08:23:32.112Z,1.65
2018-12-01T08:28:36.909Z,1.69
2018-12-01T08:33:42.357Z,1.87
2018-12-01T08:38:46.946Z,1.85
2018-12-01T08:43:51.495Z,1.82
2018-12-01T08:48:56.035Z,1.92
2018-12-01T08:54:00.556Z,1.93
2018-12-01T08:59:05.128Z,1.78
2018-12-01T09:04:09.735Z,2.07
2018-12-01T09:09:17.374Z,2.01
2018-12-01T09:14:22.360Z,2.06
2018-12-01T09:19:26.906Z,2.02
2018-12-01T09:24:31.443Z,1.97
2018-12-01T09:29:36.010Z,2.12
2018-12-01T09:34:40.921Z,2.18
2018-12-01T09:39:45.534Z,2.17
2018-12-01T09:44:50.152Z,2.17
2018-12-01T09:50:32.642Z,2.28
2018-12-01T09:55:56.415Z,2.33
2018-12-01T10:01:20.058Z,2.36
2018-12-01T10:06:43.629Z,2.51
2018-12-01T10:11:50.453Z,2.51
2018-12-01T10:16:52.676Z,2.60
2018-12-01T10:21:57.399Z,2.59
2018-12-01T10:27:01.957Z,2.59
2018-12-01T10:32:06.579Z,2.84
2018-12-01T10:37:11.072Z,2.88
2018-12-01T10:42:15.584Z,2.79
2018-12-01T10:47:20.209Z,2.80
2018-12-01T10:52:24.669Z,3.20
2018-12-01T10:57:47.918Z,3.08
2018-12-01T11:03:11.138Z,3.24
2018-12-01T11:08:16.555Z,3.06
2018-12-01T11:13:21.132Z,3.17
2018-12-01T11:24:14.363Z,3.50
2018-12-01T11:29:19.288Z,3.88
2018-12-01T11:34:43.373Z,3.88
2018-12-01T11:39:50.138Z,3.51
2018-12-01T11:44:56.946Z,3.54
2018-12-01T11:50:18.737Z,3.48
2018-12-01T11:55:26.423Z,3.42
2018-12-01T12:00:30.935Z,3.43
2018-12-01T12:05:35.601Z,3.47
2018-12-01T12:10:40.136Z,3.51
2018-12-01T12:15:45.026Z,3.51
2018-12-01T12:20:50.116Z,3.49
2018-12-01T12:26:13.701Z,3.52
2018-12-01T12:31:18.485Z,3.69
2018-12-01T12:36:42.239Z,3.64
2018-12-01T12:41:46.909Z,3.86
2018-12-01T12:46:51.502Z,3.67
2018-12-01T12:51:56.052Z,3.73
2018-12-01T12:57:00.615Z,3.61
2018-12-01T13:02:05.282Z,3.64
2018-12-01T13:07:09.845Z,3.62
2018-12-01T13:12:14.452Z,3.55
2018-12-01T13:17:19.104Z,3.60
2018-12-01T13:22:23.691Z,3.59
2018-12-01T13:27:28.296Z,3.55
2018-12-01T13:32:32.839Z,3.80
2018-12-01T13:37:38.019Z,3.74
2018-12-01T13:42:42.849Z,3.57
2018-12-01T13:47:52.326Z,3.50
2018-12-01T13:53:18.255Z,3.47
2018-12-01T13:58:22.840Z,3.51
2018-12-01T14:03:29.547Z,3.45
2018-12-01T14:08:52.815Z,3.39
2018-12-01T14:14:17.127Z,3.40
2018-12-01T14:19:40.728Z,3.32
2018-12-01T14:24:45.330Z,3.32
2018-12-01T14:29:49.932Z,3.19
2018-12-01T14:34:54.668Z,3.27
2018-12-01T14:45:28.789Z,3.22
2018-12-01T14:50:33.339Z,3.14
2018-12-01T14:55:38.314Z,3.09
2018-12-01T15:00:42.814Z,3.08
2018-12-01T15:05:47.349Z,3.04
2018-12-01T15:10:51.928Z,2.90
2018-12-01T15:15:56.550Z,2.85
2018-12-01T15:21:01.081Z,2.77
2018-12-01T15:26:05.629Z,2.61
2018-12-01T15:31:11.314Z,2.82
2018-12-01T15:36:15.855Z,2.52
2018-12-01T15:41:20.512Z,2.57
2018-12-01T15:46:25.336Z,2.36
2018-12-01T15:51:29.941Z,2.54
2018-12-01T15:56:53.658Z,2.47
2018-12-01T16:01:58.376Z,2.48
2018-12-01T16:07:21.601Z,2.56
2018-12-01T16:12:26.140Z,2.66
2018-12-01T16:17:30.774Z,2.57
2018-12-01T16:22:54.377Z,2.58
2018-12-01T16:27:58.942Z,2.57
2018-12-01T16:33:04.894Z,2.61
2018-12-01T16:38:11.098Z,2.69
2018-12-01T16:43:16.352Z,2.69
2018-12-01T16:48:21.105Z,2.53
2018-12-01T16:53:25.639Z,2.56
2018-12-01T16:58:30.158Z,2.95
2018-12-01T17:03:53.842Z,2.69
2018-12-01T17:08:58.631Z,2.69
2018-12-01T17:14:03.196Z,2.60
2018-12-01T17:19:08.120Z,2.57
2018-12-01T17:24:12.799Z,2.55
2018-12-01T17:29:17.368Z,2.67
2018-12-01T17:34:41.673Z,2.59
2018-12-01T17:39:46.220Z,2.50
2018-12-01T17:44:50.798Z,2.49
2018-12-01T17:49:55.384Z,2.66
2018-12-01T17:54:59.959Z,2.63
2018-12-01T18:00:24.002Z,2.61
2018-12-01T18:05:51.117Z,2.53
2018-12-01T18:10:56.391Z,2.66
2018-12-01T18:16:01.185Z,2.55
2018-12-01T18:21:24.543Z,2.38
2018-12-01T18:26:29.077Z,2.45
2018-12-01T18:31:33.691Z,2.33
2018-12-01T18:36:57.281Z,2.40
2018-12-01T18:42:02.144Z,2.29
2018-12-01T18:47:06.877Z,2.37
2018-12-01T18:52:11.424Z,2.30
2018-12-01T18:57:16.004Z,2.33
2018-12-01T19:02:20.619Z,2.30
2018-12-01T19:07:25.103Z,2.29
2018-12-01T19:12:29.685Z,2.25
2018-12-01T19:17:34.274Z,2.13
2018-12-01T19:22:38.824Z,2.17
2018-12-01T19:27:43.401Z,2.06
2018-12-01T19:33:10.670Z,2.11
2018-12-01T19:38:38.845Z,2.21
2018-12-01T19:43:43.430Z,2.26
2018-12-01T19:48:47.970Z,2.22
2018-12-01T19:53:52.574Z,2.23
2018-12-01T19:58:57.126Z,2.18
2018-12-01T20:04:01.700Z,2.14
2018-12-01T20:09:07.639Z,2.22
2018-12-01T20:14:14.851Z,2.16
2018-12-01T20:19:19.471Z,2.20
2018-12-01T20:24:24.056Z,2.21
2018-12-01T20:29:29.288Z,2.18
2018-12-01T20:34:55.689Z,2.35
2018-12-01T20:40:00.276Z,2.12
2018-12-01T20:45:04.890Z,2.23
2018-12-01T20:50:17.513Z,2.30
2018-12-01T20:55:26.760Z,2.22
2018-12-01T21:00:31.342Z,2.26
2018-12-01T21:11:06.486Z,2.48
2018-12-01T21:16:11.085Z,2.55
2018-12-01T21:21:15.630Z,2.54
2018-12-01T21:26:20.138Z,2.58
2018-12-01T21:31:24.681Z,2.55
2018-12-01T21:36:29.838Z,2.64
2018-12-01T21:41:34.373Z,2.67
2018-12-01T21:46:38.896Z,2.69
2018-12-01T21:51:43.520Z,2.56
2018-12-01T21:57:06.729Z,2.71
2018-12-01T22:02:11.322Z,2.69
2018-12-01T22:07:15.868Z,2.73
2018-12-01T22:12:20.466Z,2.62
2018-12-01T22:17:25.206Z,2.70
2018-12-01T22:22:29.725Z,2.77
2018-12-01T22:27:34.317Z,2.76
2018-12-01T22:32:57.870Z,2.75
2018-12-01T22:38:02.491Z,2.66
2018-12-01T22:43:08.338Z,2.86
2018-12-01T22:48:31.908Z,3.05
2018-12-01T22:53:36.693Z,3.06
2018-12-01T22:58:41.256Z,3.04
2018-12-01T23:03:45.822Z,2.98
2018-12-01T23:09:09.462Z,3.06
2018-12-01T23:14:14.064Z,3.12
2018-12-01T23:19:19.179Z,3.12
2018-12-01T23:24:52.716Z,3.19
2018-12-01T23:29:57.589Z,3.10
2018-12-01T23:35:02.100Z,3.23
2018-12-01T23:40:08.958Z,3.16
2018-12-01T23:45:32.556Z,3.29
2018-12-01T23:50:37.759Z,3.12
2018-12-01T23:55:42.501Z,3.14
